Vernon, Alabama
Current Conditions -  °F | °C
As of 6:58 PM on Friday 28 Nov 2014 (Local Time) from KCBM Reporting Station
Clear Clear  
Wind Chill: 34°   Ceiling: Unl
Heat Index: 38°   Visibility: 10mi
Dew Point: 28°   Wind: 6mph
Humidity: 68%   Direction: 130°SE
Pressure: 30.24"   Gusts: NA
Location:  33.76°N, 88.11°W
Report Text: KCBM 290058Z AUTO 13005KT 10SM CLR 03/M02 A3024 RMK AO2 SLP245 T00341020 $
Loading
Personal Weather Stations






























Interactive Weather Map New forecast layout! Learn more

10-Day Weather Forecast

Advertisements
Track Severe Weather on mobile